createdAt,value
2022-10-14T00:00:37.163Z,0
2022-10-14T00:01:53.444Z,0
2022-10-14T00:03:09.743Z,0
2022-10-14T00:04:26.052Z,0
2022-10-14T00:05:41.344Z,0
2022-10-14T00:06:57.658Z,0
2022-10-14T00:08:13.951Z,0
2022-10-14T00:09:30.237Z,0
2022-10-14T00:10:46.525Z,0
2022-10-14T00:12:02.816Z,0
2022-10-14T00:13:19.122Z,0
2022-10-14T00:14:35.409Z,0
2022-10-14T00:15:51.693Z,0
2022-10-14T00:17:07.989Z,0
2022-10-14T00:18:24.290Z,0
2022-10-14T00:19:40.605Z,0
2022-10-14T00:20:56.870Z,0
2022-10-14T00:22:12.179Z,0
2022-10-14T00:23:28.475Z,0
2022-10-14T00:24:44.778Z,0
2022-10-14T00:26:01.070Z,0
2022-10-14T00:27:17.358Z,0
2022-10-14T00:28:33.658Z,0
2022-10-14T00:29:49.944Z,0
2022-10-14T00:31:06.257Z,0
2022-10-14T00:32:22.546Z,0
2022-10-14T00:33:38.847Z,0
2022-10-14T00:34:55.136Z,0
2022-10-14T00:36:11.425Z,0
2022-10-14T00:37:27.714Z,0
2022-10-14T00:38:43.040Z,0
2022-10-14T00:39:59.341Z,0
2022-10-14T00:41:15.608Z,0
2022-10-14T00:42:31.922Z,0
2022-10-14T00:43:48.214Z,0
2022-10-14T00:45:04.502Z,0
2022-10-14T00:46:20.791Z,0
2022-10-14T00:47:37.084Z,0
2022-10-14T00:48:53.377Z,0
2022-10-14T00:50:09.685Z,0
2022-10-14T00:51:25.964Z,0
2022-10-14T00:52:42.267Z,0
2022-10-14T00:53:58.573Z,0
2022-10-14T00:55:13.870Z,0
2022-10-14T00:56:30.154Z,0
2022-10-14T00:57:46.467Z,0
2022-10-14T00:59:02.751Z,0
2022-10-14T01:00:19.048Z,0
2022-10-14T01:01:35.353Z,0
2022-10-14T01:02:51.624Z,0
2022-10-14T01:04:07.938Z,0
2022-10-14T01:05:24.218Z,0
2022-10-14T01:06:40.520Z,0
2022-10-14T01:07:56.819Z,0
2022-10-14T01:09:13.095Z,0
2022-10-14T01:10:29.418Z,0
2022-10-14T01:11:44.723Z,0
2022-10-14T01:13:01.019Z,0
2022-10-14T01:14:17.303Z,0
2022-10-14T01:16:49.877Z,0
2022-10-14T01:18:06.173Z,0
2022-10-14T01:19:22.473Z,0
2022-10-14T01:20:38.758Z,0
2022-10-14T01:21:55.058Z,0
2022-10-14T01:23:11.350Z,0
2022-10-14T01:24:27.660Z,0
2022-10-14T01:25:43.934Z,0
2022-10-14T01:27:00.255Z,0
2022-10-14T01:28:15.544Z,0
2022-10-14T01:29:31.833Z,0
2022-10-14T01:30:48.132Z,0
2022-10-14T01:32:04.429Z,0
2022-10-14T01:33:20.722Z,0
2022-10-14T01:34:37.021Z,0
2022-10-14T01:35:53.308Z,0
2022-10-14T01:37:09.609Z,0
2022-10-14T01:38:25.907Z,0
2022-10-14T01:39:42.190Z,0
2022-10-14T01:40:58.486Z,0
2022-10-14T01:42:14.774Z,0
2022-10-14T01:43:31.075Z,0
2022-10-14T01:44:46.388Z,0
2022-10-14T01:46:02.678Z,0
2022-10-14T01:47:18.977Z,0
2022-10-14T01:48:35.261Z,0
2022-10-14T01:49:51.558Z,0
2022-10-14T01:51:07.864Z,0
2022-10-14T01:52:24.170Z,0
2022-10-14T01:53:40.446Z,0
2022-10-14T01:54:56.748Z,0
2022-10-14T01:56:13.033Z,0
2022-10-14T01:57:29.346Z,0
2022-10-14T01:58:45.614Z,0
2022-10-14T02:00:01.914Z,0
2022-10-14T02:01:17.231Z,0
2022-10-14T02:02:33.528Z,0
2022-10-14T02:03:49.809Z,0
2022-10-14T02:05:06.118Z,0
2022-10-14T02:06:22.401Z,0
2022-10-14T02:07:38.708Z,0
2022-10-14T02:08:54.985Z,0
2022-10-14T02:10:11.300Z,0
2022-10-14T02:11:27.588Z,0
2022-10-14T02:12:43.888Z,0
2022-10-14T02:14:00.178Z,0
2022-10-14T02:15:16.469Z,0
2022-10-14T02:16:32.747Z,0
2022-10-14T02:17:48.089Z,0
2022-10-14T02:19:04.351Z,0
2022-10-14T02:20:20.668Z,0
2022-10-14T02:21:36.963Z,0
2022-10-14T02:22:53.243Z,0
2022-10-14T02:24:09.533Z,0
2022-10-14T02:25:25.841Z,0
2022-10-14T02:26:42.133Z,0
2022-10-14T02:27:58.436Z,0
2022-10-14T02:29:14.726Z,0
2022-10-14T02:30:31.000Z,0
2022-10-14T02:31:47.300Z,0
2022-10-14T02:33:03.588Z,0
2022-10-14T02:34:18.898Z,0
2022-10-14T02:35:35.198Z,0
2022-10-14T02:36:51.494Z,0
2022-10-14T02:38:07.790Z,0
2022-10-14T02:39:24.083Z,0
2022-10-14T02:40:40.372Z,0
2022-10-14T02:41:56.672Z,0
2022-10-14T02:43:12.982Z,0
2022-10-14T02:44:29.254Z,0
2022-10-14T02:45:45.546Z,0
2022-10-14T02:47:01.850Z,0
2022-10-14T02:48:18.144Z,0
2022-10-14T02:49:34.428Z,0
2022-10-14T02:50:49.738Z,0
2022-10-14T02:52:06.058Z,0
2022-10-14T02:53:22.351Z,0
2022-10-14T02:55:54.925Z,0
2022-10-14T02:57:11.216Z,0
2022-10-14T02:58:27.517Z,0
2022-10-14T02:59:43.801Z,0
2022-10-14T03:01:00.122Z,0
2022-10-14T03:02:16.399Z,0
2022-10-14T03:03:32.691Z,0
2022-10-14T03:04:48.979Z,0
2022-10-14T03:06:05.276Z,0
2022-10-14T03:07:20.578Z,0
2022-10-14T03:08:36.883Z,0
2022-10-14T03:09:53.173Z,0
2022-10-14T03:11:09.474Z,0
2022-10-14T03:12:25.774Z,0
2022-10-14T03:13:42.064Z,0
2022-10-14T03:14:58.353Z,0
2022-10-14T03:16:14.646Z,0
2022-10-14T03:17:30.955Z,0
2022-10-14T03:18:47.232Z,0
2022-10-14T03:20:03.527Z,0
2022-10-14T03:21:19.816Z,0
2022-10-14T03:22:36.114Z,0
2022-10-14T03:23:51.436Z,0
2022-10-14T03:25:07.723Z,0
2022-10-14T03:26:24.011Z,0
2022-10-14T03:27:40.305Z,0
2022-10-14T03:28:56.602Z,0
2022-10-14T03:30:12.900Z,0
2022-10-14T03:31:29.200Z,0
2022-10-14T03:32:45.483Z,0
2022-10-14T03:34:01.776Z,0
2022-10-14T03:35:18.070Z,0
2022-10-14T03:36:34.362Z,0
2022-10-14T03:37:50.659Z,0
2022-10-14T03:39:06.958Z,0
2022-10-14T03:40:22.281Z,0
2022-10-14T03:41:38.559Z,0
2022-10-14T03:42:54.863Z,0
2022-10-14T03:44:11.149Z,0
2022-10-14T03:45:27.455Z,0
2022-10-14T03:46:43.736Z,0
2022-10-14T03:47:59.062Z,0
2022-10-14T03:49:15.349Z,0
2022-10-14T03:50:31.640Z,0
2022-10-14T03:51:47.932Z,0
2022-10-14T03:53:04.228Z,0
2022-10-14T03:54:20.534Z,0
2022-10-14T03:55:36.812Z,0
2022-10-14T03:56:53.108Z,0
2022-10-14T03:58:09.404Z,0
2022-10-14T03:59:25.702Z,0
2022-10-14T04:00:41.989Z,0
2022-10-14T04:01:58.283Z,0
2022-10-14T04:03:14.588Z,0
2022-10-14T04:04:29.886Z,0
2022-10-14T04:05:46.191Z,0
2022-10-14T04:07:02.480Z,0
2022-10-14T04:08:18.777Z,0
2022-10-14T04:09:35.066Z,0
2022-10-14T04:10:51.359Z,0
2022-10-14T04:12:07.654Z,0
2022-10-14T04:13:23.959Z,0
2022-10-14T04:14:40.255Z,0
2022-10-14T04:15:56.537Z,0
2022-10-14T04:17:12.843Z,0
2022-10-14T04:18:29.138Z,0
2022-10-14T04:19:45.428Z,0
2022-10-14T04:21:00.732Z,0
2022-10-14T04:22:17.034Z,0
2022-10-14T04:23:33.322Z,0
2022-10-14T04:24:49.624Z,0
2022-10-14T04:26:05.921Z,0
2022-10-14T04:27:22.203Z,0
2022-10-14T04:28:38.491Z,0
2022-10-14T04:29:54.784Z,0
2022-10-14T04:31:11.085Z,0
2022-10-14T04:32:27.386Z,0
2022-10-14T04:33:43.678Z,0
2022-10-14T04:34:59.962Z,0
2022-10-14T04:36:16.268Z,0
2022-10-14T04:37:31.568Z,0
2022-10-14T04:38:47.864Z,0
2022-10-14T04:40:04.171Z,0
2022-10-14T04:41:20.453Z,0
2022-10-14T04:42:36.753Z,0
2022-10-14T04:43:53.000Z,0
2022-10-14T04:45:09.344Z,0
2022-10-14T04:46:25.637Z,0
2022-10-14T04:47:41.924Z,0
2022-10-14T04:48:58.220Z,0
2022-10-14T04:50:14.521Z,0
2022-10-14T04:51:30.809Z,0
2022-10-14T04:52:47.107Z,0
2022-10-14T04:54:02.414Z,0
2022-10-14T04:55:18.700Z,0
2022-10-14T04:56:35.009Z,0
2022-10-14T04:57:51.287Z,0
2022-10-14T04:59:07.592Z,0
2022-10-14T05:00:23.883Z,0
2022-10-14T05:01:40.180Z,0
2022-10-14T05:02:56.475Z,0
2022-10-14T05:04:12.760Z,0
2022-10-14T05:05:29.002Z,1
2022-10-14T05:06:45.294Z,0
2022-10-14T05:08:01.549Z,1
2022-10-14T05:09:17.839Z,0
2022-10-14T05:10:33.122Z,2
2022-10-14T05:11:49.368Z,1
2022-10-14T05:13:05.587Z,2
2022-10-14T05:14:21.834Z,2
2022-10-14T05:15:38.000Z,3
2022-10-14T05:16:54.308Z,6
2022-10-14T05:18:10.549Z,7
2022-10-14T05:19:26.801Z,7
2022-10-14T05:20:43.032Z,10
2022-10-14T05:21:59.269Z,11
2022-10-14T05:23:15.513Z,17
2022-10-14T05:24:31.754Z,21
2022-10-14T05:25:47.988Z,25
2022-10-14T05:27:03.259Z,33
2022-10-14T05:28:19.486Z,34
2022-10-14T05:29:35.729Z,43
2022-10-14T05:30:51.975Z,48
2022-10-14T05:32:08.207Z,54
2022-10-14T05:33:24.458Z,61
2022-10-14T05:35:56.930Z,71
2022-10-14T05:37:13.178Z,79
2022-10-14T05:38:29.409Z,86
2022-10-14T05:39:45.651Z,98
2022-10-14T05:41:01.890Z,105
2022-10-14T05:42:18.141Z,110
2022-10-14T05:43:33.386Z,116
2022-10-14T05:44:49.629Z,125
2022-10-14T05:46:05.872Z,135
2022-10-14T05:47:22.112Z,144
2022-10-14T05:48:38.350Z,150
2022-10-14T05:49:54.586Z,149
2022-10-14T05:51:10.827Z,156
2022-10-14T05:52:27.066Z,164
2022-10-14T05:53:43.311Z,173
2022-10-14T05:54:59.558Z,187
2022-10-14T05:56:15.794Z,206
2022-10-14T05:57:32.038Z,224
2022-10-14T05:58:48.275Z,252
2022-10-14T06:00:03.529Z,287
2022-10-14T06:01:19.767Z,330
2022-10-14T06:02:36.014Z,363
2022-10-14T06:03:52.252Z,403
2022-10-14T06:05:08.496Z,431
2022-10-14T06:06:24.728Z,452
2022-10-14T06:07:40.963Z,443
2022-10-14T06:08:57.206Z,424
2022-10-14T06:10:13.447Z,442
2022-10-14T06:11:29.685Z,479
2022-10-14T06:12:45.928Z,499
2022-10-14T06:14:02.168Z,496
2022-10-14T06:15:18.411Z,442
2022-10-14T06:16:33.678Z,368
2022-10-14T06:17:49.000Z,319
2022-10-14T06:19:06.145Z,297
2022-10-14T06:20:22.390Z,273
2022-10-14T06:21:38.632Z,257
2022-10-14T06:22:54.865Z,238
2022-10-14T06:24:11.107Z,221
2022-10-14T06:25:27.361Z,211
2022-10-14T06:26:43.584Z,211
2022-10-14T06:27:59.834Z,225
2022-10-14T06:29:16.069Z,263
2022-10-14T06:30:32.303Z,291
2022-10-14T06:31:48.543Z,307
2022-10-14T06:33:03.814Z,312
2022-10-14T06:34:20.042Z,272
2022-10-14T06:35:36.296Z,254
2022-10-14T06:36:52.520Z,252
2022-10-14T06:38:08.773Z,262
2022-10-14T06:39:25.010Z,285
2022-10-14T06:40:41.250Z,349
2022-10-14T06:41:57.487Z,388
2022-10-14T06:43:13.723Z,414
2022-10-14T06:44:29.961Z,473
2022-10-14T06:45:46.204Z,687
2022-10-14T06:47:02.441Z,717
2022-10-14T06:48:18.697Z,633
2022-10-14T06:49:33.944Z,688
2022-10-14T06:50:50.181Z,674
2022-10-14T06:52:06.420Z,854
2022-10-14T06:53:22.665Z,1127
2022-10-14T06:54:38.901Z,1217
2022-10-14T06:55:55.137Z,1073
2022-10-14T06:57:11.380Z,1094
2022-10-14T06:58:27.626Z,1134
2022-10-14T06:59:43.868Z,1238
2022-10-14T07:01:00.105Z,1388
2022-10-14T07:02:16.343Z,1732
2022-10-14T07:03:32.579Z,1929
2022-10-14T07:04:48.832Z,1772
2022-10-14T07:06:04.091Z,1653
2022-10-14T07:07:20.320Z,1845
2022-10-14T07:08:36.568Z,2699
2022-10-14T07:09:52.804Z,2077
2022-10-14T07:11:09.048Z,2041
2022-10-14T07:12:25.286Z,2099
2022-10-14T07:13:41.517Z,2147
2022-10-14T07:14:57.761Z,1640
2022-10-14T07:16:14.016Z,1451
2022-10-14T07:17:30.243Z,1368
2022-10-14T07:18:46.480Z,1589
2022-10-14T07:20:02.721Z,2061
2022-10-14T07:21:18.958Z,2087
2022-10-14T07:22:34.224Z,2303
2022-10-14T07:23:50.457Z,1447
2022-10-14T07:25:06.692Z,1026
2022-10-14T07:26:22.943Z,850
2022-10-14T07:27:39.174Z,784
2022-10-14T07:28:55.430Z,797
2022-10-14T07:30:11.656Z,906
2022-10-14T07:31:27.912Z,1041
2022-10-14T07:32:44.135Z,1119
2022-10-14T07:34:00.375Z,1066
2022-10-14T07:35:16.614Z,991
2022-10-14T07:36:32.865Z,955
2022-10-14T07:37:49.104Z,904
2022-10-14T07:39:04.354Z,877
2022-10-14T07:40:20.608Z,842
2022-10-14T07:41:36.831Z,839
2022-10-14T07:42:53.079Z,872
2022-10-14T07:44:09.324Z,851
2022-10-14T07:45:25.554Z,858
2022-10-14T07:46:41.804Z,875
2022-10-14T07:47:58.039Z,861
2022-10-14T07:49:14.277Z,812
2022-10-14T07:50:30.517Z,768
2022-10-14T07:51:46.767Z,833
2022-10-14T07:53:03.003Z,918
2022-10-14T07:54:19.243Z,988
2022-10-14T07:55:34.494Z,1107
2022-10-14T07:56:50.737Z,1124
2022-10-14T07:58:06.984Z,1095
2022-10-14T07:59:23.212Z,1144
2022-10-14T08:00:39.451Z,1159
2022-10-14T08:01:55.699Z,1179
2022-10-14T08:03:10.959Z,1157
2022-10-14T08:04:27.192Z,1215
2022-10-14T08:05:43.439Z,1269
2022-10-14T08:06:59.687Z,1304
2022-10-14T08:08:15.930Z,1462
2022-10-14T08:09:32.160Z,1468
2022-10-14T08:10:48.409Z,1395
2022-10-14T08:12:04.632Z,1327
2022-10-14T08:13:20.882Z,1335
2022-10-14T08:14:37.129Z,1456
2022-10-14T08:15:53.362Z,1467
2022-10-14T08:17:09.594Z,1348
2022-10-14T08:18:25.849Z,1293
2022-10-14T08:19:41.092Z,1306
2022-10-14T08:20:57.337Z,1297
2022-10-14T08:22:13.576Z,1444
2022-10-14T08:23:29.821Z,1612
2022-10-14T08:24:46.060Z,1749
2022-10-14T08:26:02.296Z,1740
2022-10-14T08:27:18.540Z,1935
2022-10-14T08:28:34.778Z,2040
2022-10-14T08:29:51.028Z,1946
2022-10-14T08:31:07.253Z,1998
2022-10-14T08:32:23.493Z,2004
2022-10-14T08:33:39.736Z,1983
2022-10-14T08:34:55.979Z,1940
2022-10-14T08:36:11.239Z,1994
2022-10-14T08:37:27.472Z,1765
2022-10-14T08:38:43.711Z,2846
2022-10-14T08:39:59.947Z,2363
2022-10-14T08:41:16.196Z,2056
2022-10-14T08:42:32.432Z,1812
2022-10-14T08:43:48.669Z,1481
2022-10-14T08:45:04.916Z,1319
2022-10-14T08:46:21.155Z,1180
2022-10-14T08:47:37.388Z,1217
2022-10-14T08:48:53.629Z,1303
2022-10-14T08:50:09.880Z,1412
2022-10-14T08:51:26.109Z,1457
2022-10-14T08:52:41.367Z,1528
2022-10-14T08:53:57.613Z,1481
2022-10-14T08:55:13.844Z,1430
2022-10-14T08:56:30.089Z,1551
2022-10-14T08:57:46.336Z,1866
2022-10-14T08:59:02.572Z,2083
2022-10-14T09:00:18.807Z,3812
2022-10-14T09:01:35.045Z,2125
2022-10-14T09:02:51.288Z,1901
2022-10-14T09:04:07.540Z,1826
2022-10-14T09:05:23.769Z,1705
2022-10-14T09:06:40.005Z,1582
2022-10-14T09:07:56.264Z,1454
2022-10-14T09:09:11.501Z,1367
2022-10-14T09:10:27.748Z,1348
2022-10-14T09:11:43.981Z,1306
2022-10-14T09:13:00.225Z,1271
2022-10-14T09:14:16.467Z,1173
2022-10-14T09:15:32.702Z,1084
2022-10-14T09:16:48.959Z,1002
2022-10-14T09:18:05.187Z,937
2022-10-14T09:19:21.425Z,873
2022-10-14T09:20:37.665Z,848
2022-10-14T09:21:53.913Z,858
2022-10-14T09:23:10.149Z,827
2022-10-14T09:24:26.388Z,799
2022-10-14T09:25:41.642Z,738
2022-10-14T09:26:57.891Z,730
2022-10-14T09:28:14.128Z,802
2022-10-14T09:29:30.359Z,846
2022-10-14T09:30:46.614Z,879
2022-10-14T09:32:02.848Z,922
2022-10-14T09:33:19.078Z,973
2022-10-14T09:34:35.332Z,992
2022-10-14T09:35:51.574Z,1065
2022-10-14T09:37:07.799Z,1110
2022-10-14T09:38:24.041Z,1111
2022-10-14T09:39:40.292Z,1164
2022-10-14T09:40:56.522Z,1294
2022-10-14T09:42:11.783Z,1485
2022-10-14T09:43:28.028Z,1684
2022-10-14T09:44:44.258Z,1694
2022-10-14T09:46:00.497Z,1667
2022-10-14T09:47:16.745Z,1667
2022-10-14T09:48:32.976Z,1786
2022-10-14T09:49:49.227Z,2001
2022-10-14T09:51:05.460Z,2321
2022-10-14T09:52:21.704Z,2389
2022-10-14T09:53:37.937Z,2396
2022-10-14T09:54:54.178Z,2412
2022-10-14T09:56:10.425Z,2354
2022-10-14T09:57:26.657Z,2413
2022-10-14T09:58:41.918Z,2077
2022-10-14T09:59:58.164Z,3008
2022-10-14T10:01:14.397Z,5383
2022-10-14T10:02:30.633Z,4887
2022-10-14T10:03:46.886Z,4468
2022-10-14T10:05:03.115Z,8451
2022-10-14T10:06:19.357Z,6850
2022-10-14T10:07:35.595Z,6589
2022-10-14T10:08:51.848Z,6308
2022-10-14T10:10:08.079Z,4952
2022-10-14T10:11:24.317Z,4614
2022-10-14T10:12:40.565Z,5759
2022-10-14T10:13:56.810Z,6143
2022-10-14T10:15:12.051Z,5477
2022-10-14T10:16:28.298Z,5172
2022-10-14T10:17:44.529Z,4500
2022-10-14T10:19:00.777Z,4030
2022-10-14T10:20:17.018Z,4030
2022-10-14T10:21:33.251Z,3387
2022-10-14T10:22:49.497Z,2880
2022-10-14T10:24:05.742Z,3015
2022-10-14T10:25:21.973Z,4977
2022-10-14T10:26:38.211Z,5111
2022-10-14T10:27:54.457Z,4080
2022-10-14T10:29:10.697Z,4390
2022-10-14T10:30:26.935Z,4980
2022-10-14T10:31:42.199Z,5168
2022-10-14T10:32:58.431Z,14246
2022-10-14T10:34:14.674Z,9756
2022-10-14T10:35:30.914Z,8955
2022-10-14T10:36:47.168Z,8509
2022-10-14T10:38:03.392Z,7296
2022-10-14T10:39:19.632Z,6542
2022-10-14T10:40:35.869Z,5999
2022-10-14T10:41:52.116Z,5641
2022-10-14T10:43:08.356Z,4571
2022-10-14T10:44:24.591Z,5790
2022-10-14T10:45:40.828Z,5957
2022-10-14T10:46:57.084Z,4660
2022-10-14T10:48:12.331Z,4128
2022-10-14T10:49:28.579Z,6095
2022-10-14T10:50:44.821Z,9345
2022-10-14T10:52:01.040Z,9574
2022-10-14T10:53:17.287Z,7934
2022-10-14T10:54:33.527Z,2655
2022-10-14T10:55:49.772Z,13869
2022-10-14T10:57:06.003Z,8539
2022-10-14T10:58:22.249Z,6928
2022-10-14T10:59:38.482Z,6472
2022-10-14T11:00:54.729Z,5618
2022-10-14T11:02:10.970Z,4522
2022-10-14T11:03:27.212Z,3817
2022-10-14T11:04:42.463Z,3592
2022-10-14T11:05:58.700Z,3560
2022-10-14T11:07:14.948Z,3147
2022-10-14T11:08:31.190Z,3405
2022-10-14T11:09:47.422Z,3308
2022-10-14T11:11:03.659Z,3021
2022-10-14T11:12:19.904Z,2838
2022-10-14T11:13:36.153Z,2733
2022-10-14T11:14:52.382Z,2791
2022-10-14T11:16:08.618Z,3113
2022-10-14T11:17:24.863Z,2924
2022-10-14T11:18:41.102Z,2945
2022-10-14T11:19:57.347Z,2454
2022-10-14T11:21:12.597Z,2497
2022-10-14T11:22:28.843Z,2359
2022-10-14T11:23:45.077Z,2384
2022-10-14T11:25:01.331Z,2550
2022-10-14T11:26:17.567Z,2666
2022-10-14T11:27:33.796Z,3056
2022-10-14T11:28:50.044Z,3126
2022-10-14T11:30:06.274Z,3605
2022-10-14T11:31:22.529Z,3581
2022-10-14T11:32:38.771Z,3372
2022-10-14T11:33:55.003Z,3053
2022-10-14T11:35:11.241Z,3024
2022-10-14T11:36:27.481Z,3124
2022-10-14T11:37:42.730Z,3256
2022-10-14T11:38:58.984Z,3916
2022-10-14T11:40:15.219Z,3951
2022-10-14T11:41:31.454Z,3971
2022-10-14T11:42:47.702Z,4986
2022-10-14T11:44:03.944Z,5184
2022-10-14T11:45:20.179Z,5041
2022-10-14T11:46:36.425Z,6666
2022-10-14T11:47:52.669Z,5411
2022-10-14T11:49:08.895Z,5150
2022-10-14T11:50:25.133Z,4349
2022-10-14T11:51:41.383Z,3938
2022-10-14T11:52:57.616Z,4349
2022-10-14T11:54:12.886Z,4487
2022-10-14T11:55:29.118Z,5245
2022-10-14T11:56:45.363Z,4708
2022-10-14T11:58:01.605Z,4452
2022-10-14T11:59:17.835Z,4284
2022-10-14T12:00:34.073Z,3973
2022-10-14T12:01:50.325Z,3186
2022-10-14T12:03:06.549Z,3600
2022-10-14T12:04:22.801Z,4150
2022-10-14T12:05:39.041Z,3965
2022-10-14T12:06:55.275Z,4011
2022-10-14T12:08:11.516Z,4081
2022-10-14T12:09:27.753Z,4059
2022-10-14T12:10:43.010Z,3747
2022-10-14T12:11:59.257Z,4029
2022-10-14T12:13:15.497Z,4013
2022-10-14T12:14:31.731Z,7829
2022-10-14T12:15:47.977Z,5540
2022-10-14T12:17:04.212Z,5330
2022-10-14T12:18:19.485Z,7839
2022-10-14T12:19:35.714Z,6649
2022-10-14T12:20:51.968Z,9389
2022-10-14T12:22:08.187Z,7926
2022-10-14T12:23:24.430Z,3938
2022-10-14T12:24:40.677Z,3970
2022-10-14T12:25:56.915Z,21265
2022-10-14T12:27:13.159Z,20319
2022-10-14T12:28:29.397Z,13501
2022-10-14T12:29:45.630Z,9124
2022-10-14T12:31:01.880Z,8695
2022-10-14T12:32:18.111Z,4119
2022-10-14T12:33:34.346Z,2181
2022-10-14T12:34:49.613Z,10117
2022-10-14T12:36:05.846Z,5844
2022-10-14T12:37:22.085Z,3297
2022-10-14T12:38:38.334Z,5479
2022-10-14T12:39:54.561Z,26629
2022-10-14T12:41:10.810Z,13174
2022-10-14T12:42:27.050Z,8281
2022-10-14T12:43:43.288Z,25696
2022-10-14T12:44:59.537Z,12545
2022-10-14T12:46:15.766Z,9814
2022-10-14T12:47:32.005Z,6875
2022-10-14T12:48:48.250Z,12468
2022-10-14T12:50:04.481Z,12521
2022-10-14T12:51:19.741Z,9145
2022-10-14T12:52:35.987Z,6587
2022-10-14T12:53:52.229Z,5928
2022-10-14T12:55:08.480Z,5514
2022-10-14T12:56:24.701Z,5092
2022-10-14T12:57:40.949Z,4966
2022-10-14T12:58:57.187Z,4522
2022-10-14T13:00:13.427Z,4255
2022-10-14T13:01:29.668Z,4222
2022-10-14T13:02:45.903Z,3972
2022-10-14T13:04:02.145Z,3704
2022-10-14T13:05:18.384Z,3712
2022-10-14T13:06:34.628Z,3699
2022-10-14T13:07:49.885Z,3473
2022-10-14T13:09:06.127Z,3322
2022-10-14T13:10:22.362Z,2963
2022-10-14T13:11:38.599Z,3914
2022-10-14T13:12:54.846Z,3213
2022-10-14T13:14:11.085Z,2453
2022-10-14T13:15:27.330Z,3820
2022-10-14T13:16:43.555Z,2958
2022-10-14T13:17:59.797Z,2430
2022-10-14T13:19:16.040Z,5278
2022-10-14T13:20:32.280Z,3512
2022-10-14T13:21:48.541Z,5076
2022-10-14T13:23:04.767Z,3562
2022-10-14T13:24:20.037Z,4760
2022-10-14T13:25:36.258Z,4817
2022-10-14T13:26:52.504Z,4709
2022-10-14T13:28:08.737Z,4674
2022-10-14T13:29:24.975Z,3832
2022-10-14T13:30:41.217Z,3383
2022-10-14T13:31:57.468Z,2164
2022-10-14T13:33:13.701Z,6918
2022-10-14T13:34:29.945Z,3872
2022-10-14T13:35:46.192Z,2910
2022-10-14T13:37:02.425Z,3682
2022-10-14T13:38:18.673Z,2470
2022-10-14T13:39:34.902Z,4878
2022-10-14T13:40:50.147Z,22362
2022-10-14T13:42:06.398Z,2036
2022-10-14T13:43:22.633Z,12272
2022-10-14T13:44:38.889Z,19657
2022-10-14T13:45:55.115Z,9701
2022-10-14T13:47:11.348Z,3063
2022-10-14T13:48:27.599Z,3592
2022-10-14T13:49:43.829Z,3516
2022-10-14T13:51:00.077Z,3035
2022-10-14T13:52:16.328Z,2813
2022-10-14T13:53:32.558Z,3003
2022-10-14T13:54:48.805Z,1249
2022-10-14T13:56:05.047Z,5065
2022-10-14T13:57:20.300Z,10360
2022-10-14T13:58:36.526Z,5448
2022-10-14T13:59:52.776Z,3349
2022-10-14T14:01:09.020Z,3249
2022-10-14T14:02:25.263Z,3254
2022-10-14T14:03:41.485Z,4492
2022-10-14T14:04:57.735Z,2656
2022-10-14T14:06:13.975Z,2745
2022-10-14T14:07:30.206Z,2378
2022-10-14T14:08:46.454Z,2912
2022-10-14T14:10:02.685Z,2858
2022-10-14T14:11:18.941Z,2348
2022-10-14T14:12:35.171Z,1942
2022-10-14T14:13:50.435Z,1817
2022-10-14T14:15:06.673Z,1036
2022-10-14T14:16:22.909Z,2285
2022-10-14T14:17:39.155Z,2182
2022-10-14T14:18:55.381Z,761
2022-10-14T14:20:11.625Z,2859
2022-10-14T14:21:27.865Z,1960
2022-10-14T14:22:44.107Z,2276
2022-10-14T14:24:00.349Z,2203
2022-10-14T14:25:16.582Z,2466
2022-10-14T14:26:32.820Z,2095
2022-10-14T14:27:49.067Z,1432
2022-10-14T14:29:05.320Z,2226
2022-10-14T14:30:20.567Z,1819
2022-10-14T14:31:36.813Z,1966
2022-10-14T14:32:53.051Z,2134
2022-10-14T14:34:09.283Z,1750
2022-10-14T14:35:25.523Z,1483
2022-10-14T14:36:41.758Z,1511
2022-10-14T14:37:58.012Z,1622
2022-10-14T14:39:14.236Z,1394
2022-10-14T14:40:30.492Z,1368
2022-10-14T14:41:46.733Z,1384
2022-10-14T14:43:02.962Z,1209
2022-10-14T14:44:19.205Z,1097
2022-10-14T14:45:35.446Z,1106
2022-10-14T14:46:50.695Z,956
2022-10-14T14:48:06.948Z,845
2022-10-14T14:49:23.195Z,792
2022-10-14T14:50:39.412Z,728
2022-10-14T14:51:55.652Z,750
2022-10-14T14:53:11.894Z,721
2022-10-14T14:54:28.135Z,806
2022-10-14T14:55:44.388Z,727
2022-10-14T14:57:00.614Z,655
2022-10-14T14:58:16.858Z,712
2022-10-14T14:59:33.095Z,784
2022-10-14T15:00:49.354Z,792
2022-10-14T15:02:05.593Z,772
2022-10-14T15:03:20.832Z,801
2022-10-14T15:04:37.076Z,851
2022-10-14T15:05:53.321Z,872
2022-10-14T15:07:09.564Z,850
2022-10-14T15:08:25.792Z,793
2022-10-14T15:09:42.054Z,779
2022-10-14T15:10:58.272Z,777
2022-10-14T15:12:14.530Z,736
2022-10-14T15:13:30.762Z,807
2022-10-14T15:14:47.006Z,777
2022-10-14T15:16:03.242Z,772
2022-10-14T15:17:19.489Z,769
2022-10-14T15:18:35.720Z,622
2022-10-14T15:19:50.976Z,1204
2022-10-14T15:21:07.227Z,868
2022-10-14T15:22:23.450Z,860
2022-10-14T15:23:39.696Z,823
2022-10-14T15:24:55.928Z,816
2022-10-14T15:26:12.166Z,834
2022-10-14T15:27:28.425Z,807
2022-10-14T15:28:44.654Z,807
2022-10-14T15:30:00.888Z,778
2022-10-14T15:31:17.147Z,740
2022-10-14T15:32:33.377Z,710
2022-10-14T15:33:49.618Z,657
2022-10-14T15:35:05.847Z,656
2022-10-14T15:36:21.125Z,644
2022-10-14T15:37:37.359Z,616
2022-10-14T15:38:53.595Z,574
2022-10-14T15:40:09.826Z,568
2022-10-14T15:41:26.063Z,536
2022-10-14T15:42:42.319Z,511
2022-10-14T15:43:58.553Z,479
2022-10-14T15:45:14.784Z,447
2022-10-14T15:46:31.043Z,429
2022-10-14T15:47:47.278Z,411
2022-10-14T15:49:03.503Z,391
2022-10-14T15:50:19.744Z,363
2022-10-14T15:51:36.000Z,337
2022-10-14T15:52:51.252Z,318
2022-10-14T15:54:07.490Z,299
2022-10-14T15:55:23.732Z,292
2022-10-14T15:56:39.987Z,272
2022-10-14T15:57:56.226Z,265
2022-10-14T15:59:12.451Z,249
2022-10-14T16:00:28.687Z,237
2022-10-14T16:01:44.936Z,222
2022-10-14T16:03:01.176Z,214
2022-10-14T16:04:17.419Z,200
2022-10-14T16:05:33.646Z,187
2022-10-14T16:06:49.896Z,173
2022-10-14T16:08:06.121Z,164
2022-10-14T16:09:21.390Z,150
2022-10-14T16:10:37.629Z,132
2022-10-14T16:11:53.862Z,116
2022-10-14T16:13:10.098Z,97
2022-10-14T16:14:26.337Z,84
2022-10-14T16:15:42.587Z,75
2022-10-14T16:16:58.000Z,68
2022-10-14T16:18:15.068Z,61
2022-10-14T16:19:31.296Z,55
2022-10-14T16:20:47.542Z,50
2022-10-14T16:22:03.791Z,45
2022-10-14T16:23:20.016Z,41
2022-10-14T16:24:36.268Z,36
2022-10-14T16:25:51.515Z,30
2022-10-14T16:27:07.764Z,27
2022-10-14T16:28:24.004Z,23
2022-10-14T16:29:40.239Z,18
2022-10-14T16:30:56.476Z,17
2022-10-14T16:32:12.726Z,13
2022-10-14T16:33:27.998Z,11
2022-10-14T16:34:44.228Z,9
2022-10-14T16:36:00.457Z,8
2022-10-14T16:37:16.696Z,6
2022-10-14T16:38:32.947Z,4
2022-10-14T16:39:49.181Z,1
2022-10-14T16:41:05.426Z,2
2022-10-14T16:42:21.675Z,2
2022-10-14T16:43:37.915Z,1
2022-10-14T16:44:54.162Z,1
2022-10-14T16:46:10.391Z,1
2022-10-14T16:47:26.673Z,0
2022-10-14T16:48:42.965Z,0
2022-10-14T16:49:58.279Z,0
2022-10-14T16:51:14.584Z,0
2022-10-14T16:52:30.871Z,0
2022-10-14T16:53:47.181Z,0
2022-10-14T16:55:03.452Z,0
2022-10-14T16:56:19.760Z,0
2022-10-14T16:57:36.039Z,0
2022-10-14T16:58:52.337Z,0
2022-10-14T17:00:08.642Z,0
2022-10-14T17:01:24.933Z,0
2022-10-14T17:02:41.234Z,0
2022-10-14T17:03:57.511Z,0
2022-10-14T17:05:13.806Z,0
2022-10-14T17:06:29.125Z,0
2022-10-14T17:07:45.426Z,0
2022-10-14T17:09:01.711Z,0
2022-10-14T17:10:18.002Z,0
2022-10-14T17:11:34.301Z,0
2022-10-14T17:12:50.604Z,0
2022-10-14T17:14:06.890Z,0
2022-10-14T17:15:23.176Z,0
2022-10-14T17:16:39.491Z,0
2022-10-14T17:17:55.761Z,0
2022-10-14T17:19:12.054Z,0
2022-10-14T17:20:28.368Z,0
2022-10-14T17:21:44.647Z,0
2022-10-14T17:22:59.965Z,0
2022-10-14T17:24:16.248Z,0
2022-10-14T17:25:32.555Z,0
2022-10-14T17:26:48.856Z,0
2022-10-14T17:28:05.159Z,0
2022-10-14T17:29:21.423Z,0
2022-10-14T17:30:37.747Z,0
2022-10-14T17:31:54.014Z,0
2022-10-14T17:33:10.330Z,0
2022-10-14T17:34:26.620Z,0
2022-10-14T17:35:42.899Z,0
2022-10-14T17:36:59.200Z,0
2022-10-14T17:38:15.484Z,0
2022-10-14T17:39:30.817Z,0
2022-10-14T17:40:47.090Z,0
2022-10-14T17:42:03.387Z,0
2022-10-14T17:43:19.685Z,0
2022-10-14T17:44:35.991Z,0
2022-10-14T17:45:52.260Z,0